Time;durP1;ratioP1;P1;durP2;ratioP2;P2;SDS_P1;SDS_P2;PMS_P1;PMS_P2;Temp;Humidity;BMP_temperature;BMP_pressure;BME280_temperature;BME280_humidity;BME280_pressure;Samples;Min_cycle;Max_cycle;Signal;HPM_P1;HPM_P2
2022/12/05 01:51:15;;;;;;;15.57;9.60;;;;;;;2.21;100.00;100906.72;6218370;23;20016;-96
2022/12/05 06:06:08;;;;;;;24.80;14.38;;;;;;;2.80;100.00;101027.25;6241657;22;20016;-96
2022/12/05 06:08:37;;;;;;;22.25;13.20;;;;;;;2.73;100.00;101029.06;6221558;23;19996;-95
2022/12/05 06:11:08;;;;;;;24.10;13.70;;;;;;;2.83;100.00;101034.88;6221292;23;20004;-95
2022/12/05 06:13:33;;;;;;;21.70;13.80;;;;;;;2.80;100.00;101040.00;6220690;23;20446;-95
2022/12/05 06:16:00;;;;;;;21.35;14.23;;;;;;;2.85;100.00;101052.66;6220214;23;20003;-95
2022/12/05 06:18:26;;;;;;;25.58;15.00;;;;;;;2.94;100.00;101068.66;6221303;23;20006;-95
2022/12/05 06:20:56;;;;;;;23.40;14.30;;;;;;;2.72;100.00;101042.66;6220526;23;20027;-95
2022/12/05 06:23:23;;;;;;;32.13;17.45;;;;;;;2.74;100.00;101035.84;6221458;23;20000;-94
2022/12/05 06:25:50;;;;;;;24.33;16.75;;;;;;;2.75;100.00;101044.31;6220691;23;20004;-96
2022/12/05 06:28:17;;;;;;;24.90;16.73;;;;;;;2.81;100.00;101051.06;6220855;23;20503;-95
2022/12/05 06:30:42;;;;;;;28.50;17.15;;;;;;;2.89;100.00;101064.50;6220982;23;20004;-95
2022/12/05 06:33:08;;;;;;;26.27;15.30;;;;;;;2.87;100.00;101061.97;6221828;23;20433;-94
2022/12/05 06:35:34;;;;;;;29.70;16.55;;;;;;;2.84;100.00;101072.22;6220673;23;20327;-95
2022/12/05 06:37:59;;;;;;;27.05;16.92;;;;;;;2.93;100.00;101056.78;6220746;23;20442;-95
2022/12/05 06:40:25;;;;;;;27.20;15.75;;;;;;;2.90;100.00;101055.97;6220468;23;20004;-96
2022/12/05 06:42:51;;;;;;;27.17;15.45;;;;;;;3.00;100.00;101081.31;6220855;23;20004;-96
2022/12/05 06:45:16;;;;;;;25.30;14.50;;;;;;;2.89;100.00;101060.25;6220858;23;20008;-96
2022/12/05 06:47:42;;;;;;;22.92;14.40;;;;;;;2.90;100.00;101053.44;6221058;23;20004;-94
2022/12/05 06:50:08;;;;;;;25.73;15.02;;;;;;;2.84;100.00;101041.63;6220621;23;20000;-96
2022/12/05 06:52:34;;;;;;;27.92;15.63;;;;;;;2.77;100.00;101050.25;6220630;23;20069;-95
2022/12/05 06:54:59;;;;;;;26.38;15.27;;;;;;;2.83;100.00;101075.66;6220393;23;20381;-95
2022/12/05 06:57:27;;;;;;;25.45;15.50;;;;;;;2.74;100.00;101060.50;6221278;23;20308;-96
2022/12/05 07:01:37;;;;;;;27.60;15.63;;;;;;;2.99;100.00;101077.06;6221692;23;20015;-95
2022/12/05 07:02:40;;;;;;;26.60;14.80;;;;;;;3.03;100.00;101077.06;6247160;23;20019;-95
2022/12/05 07:05:06;;;;;;;24.17;15.18;;;;;;;2.96;100.00;101066.94;6220341;23;20087;-94
2022/12/05 07:07:32;;;;;;;25.38;14.90;;;;;;;2.98;100.00;101072.03;6219438;23;20071;-94
2022/12/05 07:09:57;;;;;;;28.85;14.98;;;;;;;2.98;100.00;101085.59;6219156;23;20036;-94
2022/12/05 07:12:23;;;;;;;29.77;14.82;;;;;;;3.09;100.00;101087.13;6219798;23;20058;-93
2022/12/05 07:14:49;;;;;;;23.67;14.80;;;;;;;2.95;100.00;101080.56;6219642;23;20308;-94
2022/12/05 07:17:15;;;;;;;25.42;14.68;;;;;;;2.93;100.00;101066.16;6219810;23;20147;-95
2022/12/05 07:19:41;;;;;;;26.95;14.90;;;;;;;3.08;100.00;101105.88;6230923;23;20043;-96
2022/12/05 07:22:06;;;;;;;23.58;15.73;;;;;;;2.81;100.00;101066.34;6226897;23;20014;-95
2022/12/05 07:24:46;;;;;;;25.60;14.77;;;;;;;2.84;100.00;101072.22;6229677;23;20004;-96
2022/12/05 07:30:17;;;;;;;22.83;14.50;;;;;;;2.88;100.00;101078.97;6229716;23;20000;-96
2022/12/05 07:33:09;;;;;;;;;;;;;;;;;;;;;
2022/12/05 07:52:14;;;;;;;23.33;13.55;;;;;;;3.19;100.00;101121.81;6207398;22;20050;-95
2022/12/05 07:54:39;;;;;;;21.13;12.90;;;;;;;3.07;100.00;101117.75;6275323;22;20015;-95
2022/12/05 08:00:31;;;;;;;20.23;13.20;;;;;;;3.00;100.00;101109.38;6217875;23;20004;-95
2022/12/05 08:02:57;;;;;;;27.77;14.57;;;;;;;3.10;100.00;101107.53;6245644;22;20425;-95
2022/12/05 08:05:25;;;;;;;20.05;13.48;;;;;;;3.22;100.00;101129.44;6249935;22;19999;-95
2022/12/05 08:07:50;;;;;;;23.60;13.27;;;;;;;3.12;100.00;101117.69;6249754;22;20021;-94
2022/12/05 08:10:16;;;;;;;26.23;14.43;;;;;;;3.15;100.00;101132.97;6254465;22;20433;-95
2022/12/05 08:12:41;;;;;;;22.48;13.52;;;;;;;3.18;100.00;101149.06;6249362;22;20008;-94
2022/12/05 08:15:08;;;;;;;22.33;13.68;;;;;;;3.03;100.00;101125.50;6250579;22;20385;-96
2022/12/05 08:17:33;;;;;;;20.40;12.68;;;;;;;3.25;100.00;101134.50;6250346;22;20015;-96
2022/12/05 08:19:59;;;;;;;27.33;14.10;;;;;;;3.09;100.00;101127.94;6249640;22;20003;-95
2022/12/05 08:22:24;;;;;;;22.13;13.52;;;;;;;3.12;100.00;101130.44;6249538;22;20004;-95
2022/12/05 08:24:50;;;;;;;35.10;15.35;;;;;;;3.08;100.00;101139.03;6249340;22;19999;-95
2022/12/05 08:27:15;;;;;;;24.60;13.18;;;;;;;3.18;100.00;101135.47;6249869;22;20004;-95
2022/12/05 08:29:41;;;;;;;20.65;13.05;;;;;;;3.62;100.00;101164.50;6249826;22;20000;-94
2022/12/05 08:32:07;;;;;;;22.10;12.63;;;;;;;3.54;100.00;101154.44;6249401;22;20011;-95
2022/12/05 08:34:35;;;;;;;17.30;11.90;;;;;;;3.36;100.00;101135.16;6249569;22;20004;-96
2022/12/05 08:37:00;;;;;;;20.30;13.05;;;;;;;3.34;100.00;101131.81;6250219;22;20011;-95
2022/12/05 08:39:26;;;;;;;21.40;12.23;;;;;;;3.55;100.00;101150.16;6254489;22;20000;-96
2022/12/05 08:41:52;;;;;;;23.35;12.35;;;;;;;3.50;100.00;101144.31;6251583;22;20007;-96
2022/12/05 08:44:17;;;;;;;22.65;12.07;;;;;;;3.59;100.00;101164.56;6251577;22;20003;-96
2022/12/05 08:46:48;;;;;;;23.08;13.02;;;;;;;3.54;100.00;101153.59;6250988;22;20066;-95
2022/12/05 08:49:15;;;;;;;19.10;12.50;;;;;;;3.51;100.00;101146.84;6251174;22;20422;-95
2022/12/05 08:51:42;;;;;;;26.15;13.65;;;;;;;3.57;100.00;101133.13;6250567;22;20007;-94
2022/12/05 08:54:24;;;;;;;;;;;;;;;;;;;;;
2022/12/05 08:56:56;;;;;;;31.10;13.93;;;;;;;3.55;100.00;101127.19;6278871;22;20091;-96
2022/12/05 08:59:22;;;;;;;22.33;13.75;;;;;;;3.55;100.00;101132.31;6278217;22;20477;-96
2022/12/05 09:02:09;;;;;;;22.33;12.98;;;;;;;3.58;100.00;101137.34;6252137;22;20038;-95
2022/12/05 09:04:38;;;;;;;27.92;14.27;;;;;;;3.60;100.00;101133.06;6254535;22;20090;-96
2022/12/05 09:07:11;;;;;;;22.38;14.30;;;;;;;3.63;100.00;101145.75;6257477;22;20086;-96
2022/12/05 09:09:40;;;;;;;21.08;13.77;;;;;;;3.75;100.00;101170.25;6252950;22;20060;-96
2022/12/05 09:18:13;;;;;;;;;;;;;;;;;;;;;
2022/12/05 09:20:52;;;;;;;23.70;13.73;;;;;;;4.06;100.00;101180.75;6259427;22;20035;-96
2022/12/05 18:59:38;;;;;;;12.40;5.22;;;;;;;4.84;100.00;101355.66;6250220;22;20000;-95
2022/12/05 21:02:05;;;;;;;;;;;;;;;;;;;;;
2022/12/05 21:04:56;;;;;;;7.70;4.45;;;;;;;4.83;100.00;101368.47;6215743;23;20087;-96
2022/12/05 21:10:44;;;;;;;15.93;4.82;;;;;;;4.54;100.00;101325.56;6172488;23;20008;-96
2022/12/05 21:13:19;;;;;;;14.25;4.78;;;;;;;4.68;100.00;101350.00;6162265;23;20028;-94
2022/12/05 21:15:57;;;;;;;;;;;;;;;;;;;;;
2022/12/05 21:18:44;;;;;;;8.10;4.10;;;;;;;4.62;100.00;101326.25;6188502;23;20372;-94
2022/12/05 21:21:25;;;;;;;8.73;4.35;;;;;;;4.56;100.00;101339.13;6187637;23;20005;-96
2022/12/05 21:24:06;;;;;;;14.57;5.35;;;;;;;4.80;100.00;101373.66;6188963;23;20020;-95
2022/12/05 21:27:22;;;;;;;7.55;4.68;;;;;;;4.53;100.00;101340.03;6161827;23;20084;-96
2022/12/05 21:30:12;;;;;;;18.83;4.85;;;;;;;4.56;100.00;101340.00;6188075;23;20088;-96
2022/12/05 21:32:44;;;;;;;8.25;4.85;;;;;;;4.59;100.00;101349.31;6162897;23;20305;-95
2022/12/05 21:35:28;;;;;;;;;;;;;;;4.70;100.00;101378.91;6162930;23;20058;-96
2022/12/05 21:38:12;;;;;;;13.95;4.30;;;;;;;4.47;100.00;101342.72;6187474;23;19916;-96
2022/12/05 21:40:57;;;;;;;11.13;4.70;;;;;;;4.45;100.00;101352.13;6186161;23;20032;-95
2022/12/05 21:46:52;;;;;;;;;;;;;;;;;;;;;
2022/12/05 21:49:58;;;;;;;9.27;4.18;;;;;;;4.42;100.00;101347.91;6189197;23;20037;-96
2022/12/05 21:52:51;;;;;;;12.40;4.57;;;;;;;4.54;100.00;101362.19;6192351;23;20044;-96
2022/12/05 21:56:48;;;;;;;;;;;;;;;;;;;;;
2022/12/05 21:59:50;;;;;;;;;;;;;;;;;;;;;
2022/12/05 22:03:08;;;;;;;;;;;;;;;;;;;;;
2022/12/05 22:05:56;;;;;;;11.00;4.57;;;;;;;4.54;100.00;101357.06;6074994;23;20510;-94
2022/12/05 22:08:59;;;;;;;;;;;;;;;;;;;;;
